Terminal Aerodrome Forecast
Issued by NWS

Home | Current Version | Previous Version | Text Only | Print | Product List | Glossary On
Versions: 1 2 3 4 5 6 7 8 9 10 11 12 13 14
463
FTUS44 KTSA 271935 AAA
TAFMLC
TAF AMD
KMLC 271935Z 2720/2818 16010G17KT P6SM OVC015
     FM272200 17010G17KT P6SM VCTS BKN030CB
     FM280100 18010KT 4SM BR BKN015
     FM281500 19012G18KT P6SM OVC015=

USA.gov is the U.S. government's official web portal to all federal, state and local government web resources and services.